Time;durP1;ratioP1;P1;durP2;ratioP2;P2;SDS_P1;SDS_P2;PMS_P1;PMS_P2;Temp;Humidity;BMP_temperature;BMP_pressure;BME280_temperature;BME280_humidity;BME280_pressure;Samples;Min_cycle;Max_cycle;Signal;HPM_P1;HPM_P2
2020/12/24 00:01:05;;;;;;;6.53;0.62;;;;;;;7.73;84.34;100584.62;4412309;32;20443;-70
2020/12/24 00:03:31;;;;;;;5.93;0.68;;;;;;;7.74;84.67;100591.03;4413774;32;20041;-70
2020/12/24 00:05:56;;;;;;;8.18;0.77;;;;;;;7.71;84.70;100600.28;4414003;32;20079;-70
2020/12/24 00:08:22;;;;;;;6.07;0.80;;;;;;;7.78;85.34;100612.16;4412768;32;20512;-70
2020/12/24 00:10:48;;;;;;;8.60;0.70;;;;;;;7.78;85.39;100616.97;4412957;32;20455;-69
2020/12/24 00:13:15;;;;;;;5.12;0.73;;;;;;;7.85;85.30;100626.06;4412739;32;20029;-69
2020/12/24 00:15:40;;;;;;;6.75;0.80;;;;;;;7.88;85.56;100624.41;4414636;32;20018;-69
2020/12/24 00:18:06;;;;;;;8.38;1.08;;;;;;;7.79;85.02;100636.16;4409182;32;20112;-69
2020/12/24 00:20:32;;;;;;;9.63;1.30;;;;;;;7.84;85.75;100648.91;4411389;32;20061;-69
2020/12/24 00:22:57;;;;;;;8.02;1.20;;;;;;;7.77;85.48;100637.81;4414739;32;20442;-69
2020/12/24 00:25:23;;;;;;;8.18;1.20;;;;;;;7.82;86.18;100646.50;4409732;32;20455;-70
2020/12/24 00:27:49;;;;;;;4.00;1.23;;;;;;;7.81;86.27;100644.94;4411186;32;20034;-69
2020/12/24 00:30:14;;;;;;;7.95;1.37;;;;;;;7.82;85.57;100648.50;4411374;32;20077;-69
2020/12/24 00:32:40;;;;;;;8.63;1.10;;;;;;;7.81;85.64;100655.34;4409531;32;20154;-69
2020/12/24 00:35:06;;;;;;;7.70;0.90;;;;;;;7.79;85.48;100672.56;4437363;26;20061;-72
2020/12/24 00:37:32;;;;;;;7.78;1.83;;;;;;;7.69;84.63;100679.12;4421215;32;20070;-72
2020/12/24 00:39:57;;;;;;;9.30;1.42;;;;;;;7.56;83.89;100678.09;4424498;32;20393;-73
2020/12/24 00:42:23;;;;;;;8.00;1.25;;;;;;;7.60;84.63;100676.03;4421348;32;20101;-68
2020/12/24 00:44:48;;;;;;;12.95;1.40;;;;;;;7.50;84.02;100688.16;4423082;32;20078;-71
2020/12/24 00:47:14;;;;;;;9.50;1.70;;;;;;;7.47;84.55;100680.59;4423328;32;20308;-72
2020/12/24 00:49:40;;;;;;;7.93;1.92;;;;;;;7.51;84.43;100697.34;4423466;32;20038;-71
2020/12/24 00:52:05;;;;;;;9.43;1.40;;;;;;;7.53;84.72;100700.53;4422445;32;20080;-72
2020/12/24 00:54:31;;;;;;;11.40;1.45;;;;;;;7.46;84.29;100703.44;4423529;32;20076;-73
2020/12/24 00:56:58;;;;;;;16.30;2.08;;;;;;;7.55;84.71;100709.31;4422736;32;20109;-70
2020/12/24 00:59:24;;;;;;;11.32;1.60;;;;;;;7.41;83.78;100712.28;4425600;32;20053;-71
2020/12/24 01:01:50;;;;;;;9.07;1.42;;;;;;;7.44;84.12;100720.66;4422570;32;20454;-71
2020/12/24 01:04:16;;;;;;;20.25;2.72;;;;;;;7.43;84.50;100723.88;4423394;32;20088;-71
2020/12/24 01:06:41;;;;;;;11.55;1.25;;;;;;;7.30;82.96;100726.38;4423076;32;20038;-72
2020/12/24 01:09:07;;;;;;;16.98;1.87;;;;;;;7.26;82.89;100738.84;4427138;32;20033;-71
2020/12/24 01:11:33;;;;;;;19.87;2.60;;;;;;;7.28;83.04;100737.22;4421854;32;20168;-72
2020/12/24 01:13:59;;;;;;;10.98;1.50;;;;;;;7.22;82.81;100735.28;4424425;32;20092;-72
2020/12/24 01:16:25;;;;;;;13.98;1.85;;;;;;;7.16;82.44;100728.56;4423854;32;20469;-72
2020/12/24 01:18:51;;;;;;;12.60;2.17;;;;;;;7.18;82.92;100724.13;4421343;32;20049;-70
2020/12/24 01:21:16;;;;;;;12.40;1.45;;;;;;;7.08;81.87;100725.03;4421039;32;20092;-71
2020/12/24 01:23:42;;;;;;;16.23;2.05;;;;;;;7.08;81.49;100722.22;4425467;32;20089;-73
2020/12/24 01:26:09;;;;;;;17.12;1.42;;;;;;;7.03;80.84;100733.88;4422546;32;20045;-72
2020/12/24 01:28:35;;;;;;;20.15;2.22;;;;;;;7.01;80.02;100746.69;4423680;32;20430;-72
2020/12/24 01:31:01;;;;;;;15.30;1.35;;;;;;;6.98;79.94;100736.31;4423250;32;20045;-73
2020/12/24 01:33:27;;;;;;;13.85;1.50;;;;;;;6.81;79.09;100756.88;4421355;32;20068;-73
2020/12/24 01:35:54;;;;;;;12.65;1.37;;;;;;;6.77;79.74;100758.87;4412282;32;21041;-72
2020/12/24 01:38:20;;;;;;;16.08;1.58;;;;;;;6.71;78.99;100768.94;4418606;32;20513;-73
2020/12/24 01:40:47;;;;;;;14.05;1.55;;;;;;;6.70;79.13;100778.53;4412869;32;20038;-71
2020/12/24 01:43:13;;;;;;;11.15;1.87;;;;;;;6.63;78.54;100765.38;4417002;32;20152;-71
2020/12/24 01:45:38;;;;;;;19.17;2.05;;;;;;;6.61;78.81;100779.00;4417968;32;20042;-73
2020/12/24 01:48:04;;;;;;;18.10;1.75;;;;;;;6.55;78.78;100791.03;4411874;32;20442;-70
2020/12/24 01:50:30;;;;;;;8.40;1.02;;;;;;;6.50;78.82;100800.63;4414419;32;20049;-73
2020/12/24 01:52:57;;;;;;;10.63;1.50;;;;;;;6.50;79.64;100794.28;4418706;32;20089;-72
2020/12/24 01:55:23;;;;;;;8.38;1.33;;;;;;;6.39;78.18;100810.31;4415330;32;20070;-71
2020/12/24 01:57:51;;;;;;;24.25;1.75;;;;;;;6.29;78.68;100819.53;4414682;32;20106;-72
2020/12/24 02:00:18;;;;;;;18.33;1.77;;;;;;;6.31;78.98;100825.50;4415815;32;20030;-73
2020/12/24 02:02:43;;;;;;;11.65;1.33;;;;;;;6.28;78.37;100832.72;4417925;32;20352;-71
2020/12/24 02:05:09;;;;;;;13.70;1.70;;;;;;;6.18;77.55;100835.56;4399583;32;20104;-73
2020/12/24 02:07:35;;;;;;;10.30;1.12;;;;;;;6.12;77.66;100838.78;4413881;32;20074;-72
2020/12/24 02:10:01;;;;;;;9.35;1.50;;;;;;;6.05;77.13;100836.00;4411842;32;20056;-71
2020/12/24 02:12:26;;;;;;;10.20;1.17;;;;;;;6.07;78.07;100852.38;4411917;32;20093;-71
2020/12/24 02:14:52;;;;;;;11.40;1.70;;;;;;;6.02;78.49;100850.78;4414821;32;20065;-72
2020/12/24 02:17:18;;;;;;;11.38;1.45;;;;;;;5.91;77.81;100855.62;4415107;32;20150;-71
2020/12/24 02:19:43;;;;;;;9.35;1.35;;;;;;;5.96;77.98;100860.78;4414043;32;20096;-71
2020/12/24 02:22:10;;;;;;;9.10;1.12;;;;;;;5.92;77.69;100853.63;4418190;32;20156;-72
2020/12/24 02:24:40;;;;;;;11.05;1.37;;;;;;;5.91;78.26;100860.41;4416386;32;20033;-70
2020/12/24 02:27:06;;;;;;;9.88;1.33;;;;;;;5.90;77.58;100867.22;4409623;32;20061;-72
2020/12/24 02:29:31;;;;;;;9.27;1.45;;;;;;;5.82;77.55;100866.44;4411704;32;20041;-70
2020/12/24 02:31:57;;;;;;;17.10;1.37;;;;;;;5.84;78.62;100878.00;4417217;32;20026;-72
2020/12/24 02:34:23;;;;;;;8.68;1.10;;;;;;;5.82;78.35;100876.78;4414474;32;20089;-72
2020/12/24 02:36:49;;;;;;;13.15;1.55;;;;;;;5.79;78.41;100880.38;4415857;32;20137;-73
2020/12/24 02:39:14;;;;;;;8.13;1.45;;;;;;;5.72;77.94;100884.00;4409146;32;20073;-73
2020/12/24 02:41:40;;;;;;;11.27;1.10;;;;;;;5.76;78.60;100886.75;4411753;32;20085;-71
2020/12/24 02:44:06;;;;;;;8.43;1.10;;;;;;;5.75;78.89;100883.19;4402579;32;20079;-71
2020/12/24 02:46:32;;;;;;;10.70;1.37;;;;;;;5.75;79.12;100885.97;4416238;32;20074;-71
2020/12/24 02:48:57;;;;;;;4.65;0.85;;;;;;;5.73;78.87;100899.53;4415858;32;20060;-73
2020/12/24 02:51:23;;;;;;;10.68;1.23;;;;;;;5.67;78.83;100889.97;4415751;32;20060;-72
2020/12/24 02:53:49;;;;;;;9.85;1.30;;;;;;;5.59;78.68;100905.13;4419728;32;20081;-71
2020/12/24 02:56:15;;;;;;;9.38;0.77;;;;;;;5.66;79.18;100899.56;4403831;32;20042;-72
2020/12/24 02:58:40;;;;;;;11.98;1.37;;;;;;;5.63;78.94;100905.13;4417689;32;20097;-71
2020/12/24 03:01:06;;;;;;;6.43;0.85;;;;;;;5.63;79.27;100905.94;4417817;32;20064;-72
2020/12/24 03:03:31;;;;;;;10.48;1.23;;;;;;;5.62;79.70;100906.34;4417249;32;20444;-72
2020/12/24 03:05:57;;;;;;;9.73;1.20;;;;;;;5.61;80.00;100911.13;4414154;32;20081;-73
2020/12/24 03:08:23;;;;;;;6.03;1.12;;;;;;;5.58;78.99;100927.84;4415494;32;20140;-72
2020/12/24 03:10:49;;;;;;;10.45;0.88;;;;;;;5.62;79.25;100909.91;4415662;32;20066;-71
2020/12/24 03:13:14;;;;;;;7.12;1.77;;;;;;;5.57;78.99;100913.12;4415567;32;20426;-72
2020/12/24 03:15:40;;;;;;;6.82;1.05;;;;;;;5.57;79.43;100912.31;4416791;32;20035;-72
2020/12/24 03:18:06;;;;;;;4.55;0.52;;;;;;;5.57;79.24;100910.34;4414477;32;20129;-72
2020/12/24 03:20:32;;;;;;;9.13;0.93;;;;;;;5.57;79.21;100912.31;4417810;32;20080;-72
2020/12/24 03:22:58;;;;;;;8.10;1.08;;;;;;;5.57;79.91;100909.53;4420424;32;20025;-73
2020/12/24 03:25:23;;;;;;;12.30;1.08;;;;;;;5.51;79.47;100908.34;4417710;32;20066;-73
2020/12/24 03:27:49;;;;;;;6.50;0.70;;;;;;;5.46;79.16;100915.13;4416322;32;20411;-74
2020/12/24 03:30:15;;;;;;;8.73;1.17;;;;;;;5.45;79.25;100915.50;4412037;32;20097;-73
2020/12/24 03:32:40;;;;;;;10.50;1.15;;;;;;;5.44;80.17;100920.31;4416058;32;20089;-72
2020/12/24 03:35:06;;;;;;;11.10;1.77;;;;;;;5.43;79.95;100921.50;4417422;32;20071;-72
2020/12/24 03:37:32;;;;;;;8.57;1.08;;;;;;;5.41;79.21;100932.28;4419957;32;20071;-71
2020/12/24 03:39:58;;;;;;;7.45;0.70;;;;;;;5.47;79.97;100944.66;4417853;32;20398;-72
2020/12/24 03:42:24;;;;;;;5.85;0.68;;;;;;;5.47;80.09;100949.41;4417853;32;20447;-72
2020/12/24 03:44:50;;;;;;;10.75;0.80;;;;;;;5.42;79.30;100945.03;4418550;32;20407;-72
2020/12/24 03:47:16;;;;;;;7.25;1.05;;;;;;;5.37;78.81;100958.59;4416206;32;20159;-73
2020/12/24 03:49:42;;;;;;;3.08;0.70;;;;;;;5.26;79.04;100952.19;4413951;32;20150;-71
2020/12/24 03:52:08;;;;;;;7.97;0.60;;;;;;;5.23;79.17;100962.16;4416211;32;20037;-72
2020/12/24 03:54:34;;;;;;;3.47;0.80;;;;;;;5.23;79.59;100951.00;4417896;32;20068;-72
2020/12/24 03:56:59;;;;;;;11.12;0.93;;;;;;;5.23;79.19;100966.94;4412588;32;20422;-71
2020/12/24 03:59:25;;;;;;;8.05;1.05;;;;;;;5.24;79.43;100960.97;4411000;32;20486;-73
2020/12/24 04:01:51;;;;;;;4.43;0.73;;;;;;;5.18;79.35;100976.50;4415287;32;20418;-72
2020/12/24 04:04:16;;;;;;;6.47;0.95;;;;;;;5.20;79.26;100978.88;4417721;32;20030;-73
2020/12/24 04:06:42;;;;;;;11.68;0.77;;;;;;;5.20;79.34;100987.25;4414218;32;20421;-73
2020/12/24 04:09:07;;;;;;;4.90;0.80;;;;;;;5.20;79.10;100990.06;4413236;32;20094;-73
2020/12/24 04:11:33;;;;;;;7.62;0.98;;;;;;;5.21;78.89;100995.22;4412617;32;20077;-72
2020/12/24 04:13:59;;;;;;;2.35;0.50;;;;;;;5.19;78.72;100994.81;4415375;32;20060;-73
2020/12/24 04:16:25;;;;;;;7.68;0.75;;;;;;;5.16;78.59;101001.19;4410725;32;20068;-73
2020/12/24 04:18:51;;;;;;;4.37;1.00;;;;;;;5.19;78.95;101022.72;4416224;32;20042;-72
2020/12/24 04:21:16;;;;;;;4.05;0.60;;;;;;;5.03;78.27;101018.72;4414461;32;20088;-73
2020/12/24 04:23:42;;;;;;;6.45;0.65;;;;;;;5.11;79.01;101021.13;4417870;32;20153;-73
2020/12/24 04:26:08;;;;;;;2.87;0.65;;;;;;;5.13;78.44;101024.31;4413185;32;20418;-71
2020/12/24 04:28:34;;;;;;;4.90;0.62;;;;;;;5.09;78.20;101029.06;4417468;32;20088;-72
2020/12/24 04:31:02;;;;;;;4.18;0.30;;;;;;;5.08;78.06;101030.28;4415351;32;20085;-73
2020/12/24 04:33:28;;;;;;;6.22;0.98;;;;;;;5.06;78.08;101029.09;4411249;32;20030;-73
2020/12/24 04:35:53;;;;;;;2.72;0.70;;;;;;;4.98;77.57;101031.06;4417406;32;20037;-72
2020/12/24 04:38:19;;;;;;;8.25;0.75;;;;;;;5.03;77.96;101027.88;4412971;32;20096;-73
2020/12/24 04:40:49;;;;;;;7.30;1.20;;;;;;;5.00;78.09;101025.88;4414472;32;20446;-72
2020/12/24 04:43:16;;;;;;;10.40;1.20;;;;;;;5.02;77.63;101029.06;4414291;32;20099;-73
2020/12/24 04:45:41;;;;;;;2.55;0.50;;;;;;;5.00;77.35;101036.25;4414939;32;20102;-75
2020/12/24 04:48:09;;;;;;;6.03;0.90;;;;;;;5.02;78.46;101029.06;4416741;32;20430;-73
2020/12/24 04:50:37;;;;;;;3.45;0.60;;;;;;;5.04;78.82;101029.47;4416104;32;20391;-74
2020/12/24 04:53:03;;;;;;;4.82;0.45;;;;;;;5.00;78.35;101033.44;4413101;32;20057;-73
2020/12/24 04:55:29;;;;;;;4.47;0.98;;;;;;;4.90;77.71;101029.44;4418949;32;20481;-73
2020/12/24 04:57:58;;;;;;;3.12;0.62;;;;;;;4.93;77.87;101042.59;4417827;32;20053;-73
2020/12/24 05:00:26;;;;;;;4.97;0.68;;;;;;;4.96;78.19;101038.19;4412538;32;20082;-74
2020/12/24 05:03:12;;;;;;;2.65;0.82;;;;;;;4.90;77.07;101034.19;4416241;32;20494;-74
2020/12/24 05:05:38;;;;;;;4.62;0.37;;;;;;;4.83;75.49;101045.31;4417499;32;20045;-74
2020/12/24 05:08:07;;;;;;;8.18;1.75;;;;;;;4.84;75.83;101049.69;4417031;32;20198;-75
2020/12/24 05:10:34;;;;;;;3.50;0.30;;;;;;;4.83;75.63;101053.69;4401967;32;20370;-73
2020/12/24 05:13:14;;;;;;;3.83;0.62;;;;;;;4.77;74.93;101050.50;4419168;32;20042;-73
2020/12/24 05:15:40;;;;;;;9.10;0.80;;;;;;;4.75;75.59;101061.22;4416261;32;20029;-74
2020/12/24 05:18:18;;;;;;;6.22;0.70;;;;;;;4.72;75.57;101066.81;4412476;32;20132;-75
2020/12/24 05:20:44;;;;;;;3.40;0.43;;;;;;;4.65;74.61;101066.75;4418135;32;20076;-76
2020/12/24 05:23:12;;;;;;;3.35;0.50;;;;;;;4.60;73.90;101067.91;4416299;32;20037;-74
2020/12/24 05:25:37;;;;;;;3.22;0.50;;;;;;;4.69;75.12;101071.16;4404600;32;20089;-75
2020/12/24 05:28:03;;;;;;;3.60;0.30;;;;;;;4.60;73.43;101083.84;4414401;32;20137;-73
2020/12/24 05:30:31;;;;;;;5.90;0.50;;;;;;;4.69;74.78;101087.09;4411608;32;20038;-75
2020/12/24 05:32:57;;;;;;;5.60;0.35;;;;;;;4.60;72.92;101078.28;4414118;32;20085;-73
2020/12/24 05:35:24;;;;;;;2.85;0.30;;;;;;;4.65;74.18;101078.72;4412096;32;20547;-74
2020/12/24 05:37:51;;;;;;;2.92;0.30;;;;;;;4.63;74.38;101078.28;4415213;32;20034;-74
2020/12/24 05:40:24;;;;;;;1.98;0.43;;;;;;;4.60;73.83;101075.50;4412698;32;20082;-75
2020/12/24 05:45:31;;;;;;;3.37;0.50;;;;;;;4.95;72.51;101089.59;3987093;32;15150508;-76
2020/12/24 05:48:16;;;;;;;3.87;0.40;;;;;;;4.95;72.51;101089.59;4438479;32;20445;-71
2020/12/24 05:50:43;;;;;;;;;;;;;;;4.48;71.76;101095.34;4440023;32;20077;-74
2020/12/24 05:55:46;;;;;;;1.90;0.37;;;;;;;4.80;70.46;101108.25;3987707;32;15026422;-73
2020/12/24 05:58:12;;;;;;;2.83;0.30;;;;;;;4.80;70.46;101108.25;4439049;32;20076;-73
2020/12/24 06:00:40;;;;;;;2.60;0.40;;;;;;;4.41;72.25;101107.22;4436329;32;20409;-75
2020/12/24 06:05:58;;;;;;;2.80;0.30;;;;;;;4.85;70.09;101119.03;3959147;32;15725103;-75
2020/12/24 06:08:27;;;;;;;3.08;0.50;;;;;;;4.85;70.09;101119.03;4438260;32;20036;-75
2020/12/24 06:11:10;;;;;;;1.33;0.30;;;;;;;4.39;71.10;101120.75;4435161;32;20060;-75
2020/12/24 06:16:12;;;;;;;7.20;0.85;;;;;;;4.88;71.67;101142.56;3985061;32;15022571;-76
2020/12/24 06:18:40;;;;;;;1.83;0.22;;;;;;;4.88;71.67;101142.56;4440737;32;20090;-75
2020/12/24 06:21:16;;;;;;;3.17;0.40;;;;;;;4.32;69.70;101137.41;4439085;32;20073;-74
2020/12/24 06:23:49;;;;;;;1.80;0.30;;;;;;;4.36;71.28;101145.81;4440537;32;20101;-76
2020/12/24 06:26:20;;;;;;;4.07;0.30;;;;;;;4.38;71.16;101135.06;4436796;32;20180;-75
2020/12/24 06:28:48;;;;;;;2.25;0.40;;;;;;;4.34;70.48;101137.81;4443478;32;20489;-74
2020/12/24 06:31:17;;;;;;;1.08;0.40;;;;;;;4.30;70.79;101134.22;4440903;32;20121;-76
2020/12/24 06:33:42;;;;;;;1.48;0.30;;;;;;;4.26;71.08;101136.16;4438718;32;20123;-76
2020/12/24 06:36:36;;;;;;;3.53;0.50;;;;;;;4.29;71.68;101140.97;4432802;32;20037;-76
2020/12/24 06:39:04;;;;;;;5.87;0.75;;;;;;;4.40;73.06;101149.41;4430021;32;20041;-74
2020/12/24 06:41:34;;;;;;;2.37;0.60;;;;;;;4.39;72.78;101145.84;4423004;32;20095;-75
2020/12/24 06:44:00;;;;;;;2.08;0.30;;;;;;;4.40;72.77;101150.22;4434003;32;20014;-75
2020/12/24 06:46:26;;;;;;;2.70;0.32;;;;;;;4.41;72.89;101157.38;4432476;32;20034;-75
2020/12/24 06:49:07;;;;;;;4.20;0.45;;;;;;;4.24;70.92;101146.91;4426387;32;20109;-74
2020/12/24 06:51:50;;;;;;;1.95;0.37;;;;;;;4.29;70.95;101149.31;4432164;32;20111;-74
2020/12/24 06:54:21;;;;;;;3.12;0.68;;;;;;;4.30;71.49;101155.69;4430882;32;20077;-75
2020/12/24 06:56:48;;;;;;;2.40;0.60;;;;;;;4.36;71.59;101159.72;4431550;32;20042;-76
2020/12/24 06:59:21;;;;;;;5.60;0.80;;;;;;;4.40;72.66;101175.28;4429428;32;20045;-74
2020/12/24 07:02:04;;;;;;;3.97;0.52;;;;;;;4.42;72.76;101175.69;4432717;32;20374;-77
2020/12/24 07:04:39;;;;;;;3.47;0.47;;;;;;;4.42;72.76;101184.03;4431707;32;20034;-75
2020/12/24 07:07:06;;;;;;;4.57;0.77;;;;;;;4.43;71.72;101184.84;4430955;32;20085;-75
2020/12/24 07:12:08;;;;;;;2.25;0.50;;;;;;;4.71;68.24;101197.03;3984991;32;15027111;-76
2020/12/24 07:14:40;;;;;;;2.20;0.50;;;;;;;4.71;68.24;101197.03;4442468;32;20010;-76
2020/12/24 07:19:45;;;;;;;2.17;0.57;;;;;;;4.80;68.48;101211.41;3976428;32;15026929;-77
2020/12/24 07:22:14;;;;;;;3.00;0.30;;;;;;;4.80;68.48;101211.41;4430882;32;20076;-78
2020/12/24 07:24:39;;;;;;;5.28;0.45;;;;;;;4.37;69.05;101201.12;4430182;32;20103;-77
2020/12/24 07:27:06;;;;;;;2.80;0.30;;;;;;;4.31;69.46;101204.66;4430184;32;20062;-74
2020/12/24 07:29:34;;;;;;;1.83;0.30;;;;;;;4.33;68.95;101214.25;4428374;32;20090;-75
2020/12/24 07:32:03;;;;;;;3.22;0.50;;;;;;;4.34;68.13;101221.41;4426231;32;20069;-75
2020/12/24 07:34:31;;;;;;;2.37;0.32;;;;;;;4.43;68.87;101223.87;4425317;32;20037;-77
2020/12/24 07:36:58;;;;;;;4.10;0.50;;;;;;;4.44;69.29;101228.25;4422469;32;20077;-77
2020/12/24 07:39:23;;;;;;;2.67;0.30;;;;;;;4.36;69.14;101240.53;4420051;32;20078;-75
2020/12/24 07:41:50;;;;;;;1.00;0.40;;;;;;;4.45;69.62;101227.09;4421273;32;20056;-76
2020/12/24 07:44:18;;;;;;;1.55;0.22;;;;;;;4.41;68.42;101234.59;4425664;32;20083;-75
2020/12/24 07:46:45;;;;;;;5.60;0.57;;;;;;;4.47;68.55;101230.25;4422781;32;20060;-76
2020/12/24 07:49:10;;;;;;;2.62;0.47;;;;;;;4.40;68.40;101236.59;4422714;32;20021;-77
2020/12/24 07:51:36;;;;;;;7.53;0.73;;;;;;;4.53;69.22;101245.44;4421738;32;20098;-75
2020/12/24 07:54:09;;;;;;;2.12;0.30;;;;;;;4.43;69.36;101246.97;4426268;32;20391;-75
2020/12/24 07:56:36;;;;;;;1.80;0.40;;;;;;;4.51;69.08;101248.62;4422868;32;20141;-74
2020/12/24 07:59:04;;;;;;;1.35;0.43;;;;;;;4.45;68.39;101258.50;4421565;32;20756;-77
2020/12/24 08:01:30;;;;;;;2.85;0.40;;;;;;;4.50;69.04;101265.72;4419385;32;21336;-75
2020/12/24 08:03:58;;;;;;;2.17;0.80;;;;;;;4.44;68.29;101270.03;4421713;32;20405;-75
2020/12/24 08:06:24;;;;;;;3.85;0.40;;;;;;;4.31;68.72;101280.69;4422210;32;20381;-75
2020/12/24 08:08:50;;;;;;;2.75;0.52;;;;;;;4.25;68.60;101279.44;4424148;32;20347;-77
2020/12/24 08:11:15;;;;;;;2.62;0.50;;;;;;;4.40;68.71;101270.03;4421007;32;20107;-75
2020/12/24 08:13:41;;;;;;;5.65;0.47;;;;;;;4.31;68.25;101283.47;4423297;32;20756;-74
2020/12/24 08:16:11;;;;;;;2.70;0.40;;;;;;;4.37;68.71;101289.50;4419816;32;20065;-77
2020/12/24 08:18:44;;;;;;;3.35;0.50;;;;;;;4.43;68.89;101285.16;4422021;32;20710;-75
2020/12/24 08:21:19;;;;;;;0.70;0.22;;;;;;;4.41;69.06;101296.69;4423853;32;20069;-76
2020/12/24 08:23:53;;;;;;;2.37;1.20;;;;;;;4.38;68.78;101300.25;4421338;32;20018;-74
2020/12/24 08:26:21;;;;;;;3.40;0.70;;;;;;;4.41;69.24;101316.22;4419381;32;20082;-77
2020/12/24 08:31:28;;;;;;;3.08;0.65;;;;;;;4.84;67.65;101329.34;3995206;32;15022282;-75
2020/12/24 08:33:54;;;;;;;3.17;0.32;;;;;;;4.84;67.65;101329.34;4445242;32;20009;-75
2020/12/24 08:36:22;;;;;;;3.08;0.35;;;;;;;4.43;68.35;101325.00;4439124;32;21746;-76
2020/12/24 08:38:48;;;;;;;3.47;0.47;;;;;;;4.44;67.80;101336.94;4441505;32;20128;-75
2020/12/24 08:41:23;;;;;;;1.17;0.37;;;;;;;4.33;66.96;101328.47;4428672;32;20132;-75
2020/12/24 08:43:52;;;;;;;2.62;0.50;;;;;;;4.50;67.87;101341.78;4436512;32;20041;-74
2020/12/24 08:46:18;;;;;;;2.05;0.30;;;;;;;4.51;67.80;101337.78;4437893;32;20065;-76
2020/12/24 08:48:44;;;;;;;3.10;0.55;;;;;;;4.47;67.24;101339.75;4437067;32;20037;-74
2020/12/24 08:51:13;;;;;;;7.30;0.93;;;;;;;4.46;67.21;101352.09;4439245;32;20022;-76
2020/12/24 08:53:39;;;;;;;2.08;0.55;;;;;;;4.49;67.41;101348.56;4438866;32;20077;-73
2020/12/24 08:56:20;;;;;;;4.80;0.52;;;;;;;4.42;66.90;101354.03;4437723;32;20121;-74
2020/12/24 08:58:50;;;;;;;3.67;0.62;;;;;;;4.48;66.30;101354.50;4426572;32;20045;-76
2020/12/24 09:01:17;;;;;;;7.97;0.70;;;;;;;4.50;67.38;101369.66;4436926;32;20116;-73
2020/12/24 09:03:44;;;;;;;4.62;0.70;;;;;;;4.44;67.48;101381.50;4438819;32;20034;-74
2020/12/24 09:06:12;;;;;;;3.45;0.30;;;;;;;4.52;67.38;101395.16;4436191;32;20081;-77
2020/12/24 09:08:39;;;;;;;2.83;0.50;;;;;;;4.47;67.25;101401.06;4425410;32;20074;-73
2020/12/24 09:11:05;;;;;;;3.10;0.80;;;;;;;4.62;68.18;101413.97;4435508;32;20099;-75
2020/12/24 09:13:30;;;;;;;6.15;0.95;;;;;;;4.57;67.13;101424.69;4436514;32;20041;-76
2020/12/24 09:15:56;;;;;;;4.95;0.93;;;;;;;4.69;67.14;101427.22;4435311;32;20415;-75
2020/12/24 09:18:22;;;;;;;11.25;1.30;;;;;;;4.76;67.05;101430.88;4435329;32;20064;-75
2020/12/24 09:20:47;;;;;;;3.45;0.62;;;;;;;4.83;67.36;101439.31;4443032;32;20093;-75
2020/12/24 09:23:15;;;;;;;3.12;0.60;;;;;;;4.89;66.03;101437.78;4437738;32;20058;-76
2020/12/24 09:28:19;;;;;;;5.43;0.52;;;;;;;5.30;64.95;101444.09;3958810;32;15735564;-75
2020/12/24 09:30:45;;;;;;;5.62;0.70;;;;;;;5.30;64.95;101444.09;4438070;32;20021;-74
2020/12/24 09:33:11;;;;;;;3.97;0.93;;;;;;;4.93;65.47;101440.56;4437088;32;20222;-76
2020/12/24 09:35:36;;;;;;;1.80;0.47;;;;;;;5.08;65.94;101443.13;4426507;32;20136;-72
2020/12/24 09:38:02;;;;;;;2.67;0.60;;;;;;;4.96;65.95;101442.59;4425437;32;20030;-72
2020/12/24 09:40:28;;;;;;;3.35;0.70;;;;;;;4.98;66.09;101457.78;4426021;32;20083;-74
2020/12/24 09:42:54;;;;;;;4.03;0.77;;;;;;;5.08;65.96;101456.28;4427837;32;20025;-75
2020/12/24 09:45:19;;;;;;;2.10;0.62;;;;;;;5.23;66.10;101456.03;4425621;32;20034;-74
2020/12/24 09:47:46;;;;;;;2.37;0.60;;;;;;;5.17;65.57;101456.75;4427285;32;20056;-73
2020/12/24 09:50:13;;;;;;;3.40;0.70;;;;;;;5.33;65.38;101465.66;4423411;32;20092;-74
2020/12/24 09:52:39;;;;;;;2.50;0.80;;;;;;;5.46;65.12;101476.16;4426050;32;20145;-74
2020/12/24 09:55:05;;;;;;;2.45;0.77;;;;;;;5.62;65.03;101478.69;4424637;32;20078;-73
2020/12/24 09:57:32;;;;;;;6.03;0.82;;;;;;;5.74;64.30;101475.59;4425749;32;20536;-76
2020/12/24 09:59:59;;;;;;;6.40;1.10;;;;;;;5.96;64.20;101486.53;4422956;32;20037;-72
2020/12/24 10:02:26;;;;;;;5.57;1.08;;;;;;;6.08;62.35;101489.00;4423034;32;20066;-73
2020/12/24 10:04:53;;;;;;;8.52;0.90;;;;;;;5.99;63.02;101502.50;4425649;32;20026;-74
2020/12/24 10:07:23;;;;;;;5.93;1.27;;;;;;;6.19;63.48;101513.44;4425640;32;20100;-77
2020/12/24 10:09:51;;;;;;;5.32;0.90;;;;;;;6.19;62.10;101513.44;4425716;32;20139;-76
2020/12/24 10:12:19;;;;;;;4.65;1.10;;;;;;;6.47;61.90;101521.97;4425010;32;20033;-76
2020/12/24 10:14:45;;;;;;;1.60;0.57;;;;;;;6.56;62.07;101516.81;4425278;32;20018;-78
2020/12/24 10:17:12;;;;;;;6.43;0.90;;;;;;;6.72;61.92;101526.47;4425935;32;20091;-74
2020/12/24 10:19:37;;;;;;;6.80;1.60;;;;;;;6.90;60.81;101523.75;4424227;32;20098;-76
2020/12/24 10:22:03;;;;;;;4.05;0.70;;;;;;;7.09;60.88;101538.19;4426357;32;20403;-74
2020/12/24 10:24:29;;;;;;;3.05;0.90;;;;;;;7.08;60.43;101535.78;4425955;32;20037;-72
2020/12/24 10:26:55;;;;;;;1.83;0.60;;;;;;;7.01;60.00;101533.78;4424150;32;20041;-77
2020/12/24 10:29:22;;;;;;;3.33;0.93;;;;;;;6.78;60.08;101524.09;4424704;32;20088;-75
2020/12/24 10:31:48;;;;;;;6.70;1.10;;;;;;;6.86;60.34;101528.53;4422595;32;20141;-74
2020/12/24 10:34:14;;;;;;;10.73;1.67;;;;;;;6.56;60.74;101531.59;4425118;32;20022;-75
2020/12/24 10:36:40;;;;;;;5.00;0.82;;;;;;;6.74;61.24;101535.28;4425027;32;20030;-75
2020/12/24 10:39:07;;;;;;;7.32;1.27;;;;;;;6.82;61.69;101541.69;4404495;32;20132;-75
2020/12/24 10:41:34;;;;;;;6.35;0.88;;;;;;;6.74;60.94;101540.88;4413372;32;20069;-73
2020/12/24 10:44:00;;;;;;;2.97;0.68;;;;;;;6.88;60.39;101542.94;4412924;32;20098;-71
2020/12/24 10:46:26;;;;;;;4.50;1.42;;;;;;;6.43;60.56;101535.94;4412741;32;20053;-73
2020/12/24 10:48:51;;;;;;;4.97;0.90;;;;;;;6.62;61.21;101551.59;4402961;32;20114;-71
2020/12/24 10:51:17;;;;;;;2.22;0.60;;;;;;;6.33;61.80;101533.88;4416857;32;20072;-73
2020/12/24 10:53:45;;;;;;;2.53;0.50;;;;;;;6.39;62.19;101526.72;4412096;32;20018;-75
2020/12/24 10:56:12;;;;;;;3.30;0.80;;;;;;;6.25;61.67;101540.59;4414905;32;20074;-74
2020/12/24 10:58:38;;;;;;;6.12;0.70;;;;;;;6.27;62.42;101543.00;4400032;32;20333;-72
2020/12/24 11:01:08;;;;;;;4.28;0.62;;;;;;;6.17;62.29;101532.56;4411753;32;20071;-73
2020/12/24 11:03:36;;;;;;;4.95;0.75;;;;;;;6.09;62.75;101540.91;4412356;32;20053;-75
2020/12/24 11:06:04;;;;;;;2.90;0.73;;;;;;;5.91;62.95;101550.34;4413804;32;20458;-73
2020/12/24 11:08:30;;;;;;;3.72;0.90;;;;;;;6.03;63.35;101559.25;4415126;32;20056;-75
2020/12/24 11:10:56;;;;;;;3.00;0.73;;;;;;;6.08;63.28;101556.06;4412739;32;20668;-73
2020/12/24 11:13:22;;;;;;;3.35;0.60;;;;;;;6.13;63.52;101560.50;4411575;32;20075;-74
2020/12/24 11:15:47;;;;;;;4.03;0.80;;;;;;;6.16;63.53;101570.88;4412108;32;20425;-75
2020/12/24 11:18:13;;;;;;;2.90;0.77;;;;;;;6.04;63.91;101576.78;4413483;32;20542;-72
2020/12/24 11:20:39;;;;;;;3.10;0.80;;;;;;;6.07;63.58;101582.41;4412600;32;20160;-72
2020/12/24 11:23:05;;;;;;;2.47;1.05;;;;;;;6.25;63.89;101584.50;4415187;32;20023;-72
2020/12/24 11:25:31;;;;;;;5.80;1.52;;;;;;;6.46;63.25;101582.69;4414077;32;20089;-72
2020/12/24 11:27:56;;;;;;;8.55;1.02;;;;;;;6.88;62.75;101593.28;4414921;32;20199;-75
2020/12/24 11:30:22;;;;;;;3.95;1.00;;;;;;;6.97;62.20;101597.31;4410089;32;20061;-74
2020/12/24 11:32:47;;;;;;;1.30;0.57;;;;;;;6.95;62.07;101601.72;4413340;32;20659;-71
2020/12/24 11:35:13;;;;;;;3.05;1.02;;;;;;;7.01;62.09;101595.34;4400903;32;20026;-74
2020/12/24 11:37:39;;;;;;;3.28;1.30;;;;;;;7.34;61.20;101606.25;4411612;32;20069;-73
2020/12/24 11:40:05;;;;;;;2.37;0.82;;;;;;;7.23;60.72;101599.00;4414844;32;20413;-75
2020/12/24 11:42:32;;;;;;;3.53;1.40;;;;;;;6.95;62.13;101610.91;4401011;32;20065;-72
2020/12/24 11:44:58;;;;;;;3.78;1.12;;;;;;;7.04;61.60;101607.75;4413563;32;20590;-73
2020/12/24 11:47:23;;;;;;;6.07;1.05;;;;;;;6.94;61.81;101608.50;4411706;32;20487;-76
2020/12/24 11:49:49;;;;;;;6.37;1.87;;;;;;;7.12;61.94;101612.19;4411715;32;20034;-76
2020/12/24 11:52:15;;;;;;;3.85;1.00;;;;;;;7.12;62.20;101603.78;4414328;32;20070;-73